Time;durP1;ratioP1;P1;durP2;ratioP2;P2;SDS_P1;SDS_P2;PMS_P1;PMS_P2;Temp;Humidity;BMP_temperature;BMP_pressure;BME280_temperature;BME280_humidity;BME280_pressure;Samples;Min_cycle;Max_cycle;Signal;HPM_P1;HPM_P2
2022/03/12 00:01:24;;;;;;;;;;;;;;;3.07;74.09;102671.94;5015788;28;19909;-90
2022/03/12 00:03:58;;;;;;;;;;;;;;;3.11;74.28;102665.44;5033534;28;19920;-89
2022/03/12 00:06:23;;;;;;;;;;;;;;;3.10;73.97;102671.34;4999141;28;19917;-90
2022/03/12 00:08:58;;;;;;;;;;;;;;;3.08;73.89;102673.75;5013685;28;19959;-90
2022/03/12 00:11:27;;;;;;;;;;;;;;;3.13;73.33;102671.69;5012252;28;20451;-90
2022/03/12 00:13:54;;;;;;;;;;;;;;;3.12;73.81;102672.44;5012230;28;19941;-90
2022/03/12 00:16:24;;;;;;;;;;;;;;;3.06;73.80;102670.97;5015172;28;20310;-89
2022/03/12 00:18:57;;;;;;;;;;;;;;;3.05;74.14;102674.31;4999440;28;19908;-90
2022/03/12 00:21:24;;;;;;;;;;;;;;;3.02;73.78;102670.47;4999298;28;20617;-90
2022/03/12 00:24:00;;;;;;;;;;;;;;;3.06;74.14;102677.81;5015531;28;19924;-90
2022/03/12 00:26:28;;;;;;;;;;;;;;;3.03;74.53;102673.22;5031838;28;19909;-89
2022/03/12 00:28:54;;;;;;;;;;;;;;;3.09;74.24;102660.13;5015255;28;19920;-90
2022/03/12 00:31:25;;;;;;;;;;;;;;;3.04;73.71;102675.03;4998928;28;19908;-90
2022/03/12 00:33:53;;;;;;;;;;;;;;;3.01;74.20;102669.56;5028180;28;19913;-90
2022/03/12 00:36:19;;;;;;;;;;;;;;;3.03;74.23;102670.66;4996944;28;19910;-89
2022/03/12 00:38:47;;;;;;;;;;;;;;;3.01;73.54;102661.81;5031484;28;20003;-89
2022/03/12 00:41:16;;;;;;;;;;;;;;;3.21;72.91;102656.31;5031705;28;19909;-90
2022/03/12 00:43:45;;;;;;;;;;;;;;;3.07;73.32;102664.19;5028098;28;20428;-90
2022/03/12 00:46:30;;;;;;;;;;;;;;;3.01;73.82;102661.81;5011961;28;19979;-91
2022/03/12 00:48:59;;;;;;;;;;;;;;;2.92;74.13;102657.25;5011584;28;19999;-90
2022/03/12 00:51:34;;;;;;;;;;;;;;;3.01;73.72;102651.47;5011878;28;19931;-90
2022/03/12 00:54:03;;;;;;;;;;;;;;;3.01;73.22;102654.06;5031316;28;19913;-90
2022/03/12 00:56:35;;;;;;;;;;;;;;;3.02;73.59;102645.56;5032822;28;19948;-90
2022/03/12 00:59:07;;;;;;;;;;;;;;;2.96;73.96;102647.44;4998811;28;20353;-90
2022/03/12 01:01:33;;;;;;;;;;;;;;;2.92;74.08;102653.03;5032681;28;20247;-90
2022/03/12 01:04:10;;;;;;;;;;;;;;;2.93;74.06;102656.50;4998613;28;20365;-89
2022/03/12 01:06:37;;;;;;;;;;;;;;;2.88;73.55;102655.03;5031356;28;19916;-90
2022/03/12 01:09:14;;;;;;;;;;;;;;;2.89;73.66;102662.97;5015090;28;20374;-90
2022/03/12 01:11:45;;;;;;;;;;;;;;;2.96;73.68;102667.16;4998766;28;19909;-90
2022/03/12 01:14:16;;;;;;;;;;;;;;;2.94;74.13;102660.91;5014730;28;19956;-89
2022/03/12 01:16:49;;;;;;;;;;;;;;;2.94;74.19;102658.34;5014564;28;19919;-90
2022/03/12 01:19:18;;;;;;;;;;;;;;;2.98;73.60;102660.53;5015041;28;19909;-90
2022/03/12 01:21:52;;;;;;;;;;;;;;;2.85;74.35;102666.84;5032515;28;20007;-90
2022/03/12 01:24:19;;;;;;;;;;;;;;;2.85;74.17;102661.69;4997863;28;20401;-90
2022/03/12 01:26:45;;;;;;;;;;;;;;;2.87;74.37;102671.28;4998061;28;20004;-90
2022/03/12 01:29:18;;;;;;;;;;;;;;;2.85;74.13;102664.28;4998341;28;19920;-90
2022/03/12 01:31:43;;;;;;;;;;;;;;;2.84;74.53;102672.78;4998701;28;20008;-90
2022/03/12 01:34:20;;;;;;;;;;;;;;;2.87;74.24;102672.19;4998385;28;20306;-90
2022/03/12 01:36:49;;;;;;;;;;;;;;;2.86;74.17;102675.53;5009690;28;19914;-90
2022/03/12 01:39:14;;;;;;;;;;;;;;;2.81;73.92;102674.97;5011713;28;19917;-90
2022/03/12 01:41:53;;;;;;;;;;;;;;;2.85;73.98;102677.19;5027892;28;19982;-90
2022/03/12 01:44:21;;;;;;;;;;;;;;;2.81;74.57;102685.28;5000278;28;19918;-90
2022/03/12 01:46:51;;;;;;;;;;;;;;;2.80;74.57;102680.91;5012871;28;20190;-90
2022/03/12 01:49:22;;;;;;;;;;;;;;;2.89;73.56;102682.72;4995064;28;19925;-90
2022/03/12 01:51:53;;;;;;;;;;;;;;;2.85;73.62;102690.06;5012458;28;19909;-90
2022/03/12 01:54:26;;;;;;;;;;;;;;;2.80;73.70;102680.00;4995721;28;19963;-90
2022/03/12 01:56:54;;;;;;;;;;;;;;;2.93;73.28;102685.81;5011292;28;19947;-90
2022/03/12 01:59:24;;;;;;;;;;;;;;;2.87;73.18;102685.09;5029999;28;19925;-90
2022/03/12 02:01:53;;;;;;;;;;;;;;;2.93;72.96;102684.91;5014466;28;19909;-88
2022/03/12 02:04:20;;;;;;;;;;;;;;;2.87;73.64;102689.34;5033970;28;19917;-89
2022/03/12 02:06:47;;;;;;;;;;;;;;;3.06;72.61;102686.47;5017818;28;19920;-88
2022/03/12 02:09:17;;;;;;;;;;;;;;;2.92;72.88;102688.22;5035004;28;19909;-87
2022/03/12 02:11:43;;;;;;;;;;;;;;;2.84;73.51;102693.41;5017218;28;19912;-88
2022/03/12 02:14:13;;;;;;;;;;;;;;;2.79;73.10;102694.53;5017061;28;19921;-87
2022/03/12 02:16:51;;;;;;;;;;;;;;;2.78;73.33;102692.69;5000625;28;19909;-88
2022/03/12 02:19:17;;;;;;;;;;;;;;;2.79;73.81;102688.44;5000490;28;19909;-88
2022/03/12 02:21:52;;;;;;;;;;;;;;;2.76;73.46;102688.13;5017175;28;19909;-87
2022/03/12 02:24:18;;;;;;;;;;;;;;;2.81;73.20;102690.47;5029732;28;19917;-87
2022/03/12 02:26:44;;;;;;;;;;;;;;;2.73;73.36;102682.56;5030382;28;19916;-86
2022/03/12 02:29:12;;;;;;;;;;;;;;;2.75;73.58;102691.41;5013530;28;19909;-85
2022/03/12 02:31:42;;;;;;;;;;;;;;;2.94;72.58;102686.72;5015380;28;19996;-86
2022/03/12 02:34:10;;;;;;;;;;;;;;;2.82;72.57;102678.50;5016530;28;19917;-87
2022/03/12 02:36:36;;;;;;;;;;;;;;;2.78;72.76;102678.88;5027246;28;20383;-86
2022/03/12 02:39:04;;;;;;;;;;;;;;;2.90;73.01;102689.69;5017105;28;19916;-88
2022/03/12 02:41:42;;;;;;;;;;;;;;;2.73;73.24;102680.94;5000960;28;19909;-87
2022/03/12 02:44:15;;;;;;;;;;;;;;;2.74;73.55;102680.19;5000795;28;20382;-88
2022/03/12 02:46:43;;;;;;;;;;;;;;;2.67;73.42;102679.28;5033793;28;19909;-88
2022/03/12 02:49:09;;;;;;;;;;;;;;;2.67;72.92;102669.91;5032961;28;19909;-87
2022/03/12 02:51:34;;;;;;;;;;;;;;;2.74;73.26;102672.44;5000150;28;20378;-86
2022/03/12 02:54:00;;;;;;;;;;;;;;;2.75;73.41;102665.63;5033941;28;19962;-88
2022/03/12 02:56:25;;;;;;;;;;;;;;;2.67;73.52;102675.06;5016577;28;20063;-86
2022/03/12 02:58:51;;;;;;;;;;;;;;;2.65;73.36;102664.56;4999829;28;19917;-86
2022/03/12 03:01:18;;;;;;;;;;;;;;;2.74;73.60;102656.97;5016469;28;19972;-86
2022/03/12 03:03:45;;;;;;;;;;;;;;;2.65;73.66;102658.50;4999494;28;20333;-87
2022/03/12 03:06:15;;;;;;;;;;;;;;;2.66;73.67;102657.75;5016329;28;20393;-87
2022/03/12 03:08:42;;;;;;;;;;;;;;;2.61;73.66;102653.72;5016672;28;19909;-86
2022/03/12 03:11:15;;;;;;;;;;;;;;;2.63;73.85;102653.16;5015526;28;19913;-86
2022/03/12 03:13:42;;;;;;;;;;;;;;;2.67;73.48;102640.59;5015775;28;20443;-87
2022/03/12 03:16:21;;;;;;;;;;;;;;;2.63;73.40;102641.91;5016495;28;19964;-88
2022/03/12 03:18:57;;;;;;;;;;;;;;;2.63;73.41;102645.41;5017253;28;19913;-88
2022/03/12 03:21:23;;;;;;;;;;;;;;;2.61;73.60;102648.56;5016723;28;20003;-89
2022/03/12 03:23:49;;;;;;;;;;;;;;;2.60;74.09;102641.53;4999531;28;19924;-90
2022/03/12 03:26:37;;;;;;;;;;;;;;;2.67;73.20;102648.31;5000032;28;19909;-90
2022/03/12 03:29:06;;;;;;;;;;;;;;;2.61;73.22;102638.25;5008992;28;19909;-90
2022/03/12 03:31:31;;;;;;;;;;;;;;;2.62;73.26;102637.50;4999302;28;19936;-88
2022/03/12 03:33:56;;;;;;;;;;;;;;;2.60;73.14;102641.53;4999681;28;19909;-88
2022/03/12 03:36:24;;;;;;;;;;;;;;;2.55;73.12;102645.25;5016482;28;19963;-90
2022/03/12 03:38:50;;;;;;;;;;;;;;;2.61;73.26;102638.25;4999454;28;19971;-87
2022/03/12 03:41:17;;;;;;;;;;;;;;;2.59;72.84;102650.94;5031607;28;19913;-87
2022/03/12 03:43:47;;;;;;;;;;;;;;;2.58;73.68;102654.28;5015736;28;19916;-88
2022/03/12 03:46:19;;;;;;;;;;;;;;;2.54;73.33;102646.94;5016115;28;19909;-88
2022/03/12 03:48:45;;;;;;;;;;;;;;;2.65;72.93;102649.09;4999317;28;19959;-87
2022/03/12 03:51:10;;;;;;;;;;;;;;;2.62;72.77;102647.81;5015282;28;19913;-87
2022/03/12 03:53:37;;;;;;;;;;;;;;;2.55;73.07;102663.31;4999323;28;19909;-87
2022/03/12 03:56:03;;;;;;;;;;;;;;;2.49;73.73;102660.03;4999419;28;20006;-88
2022/03/12 03:58:32;;;;;;;;;;;;;;;2.53;72.97;102654.47;4999061;28;19917;-88
2022/03/12 04:01:06;;;;;;;;;;;;;;;2.54;73.50;102662.41;5015891;28;19951;-87
2022/03/12 04:03:32;;;;;;;;;;;;;;;2.50;73.66;102665.38;5015284;28;19963;-87
2022/03/12 04:06:01;;;;;;;;;;;;;;;2.46;73.38;102663.16;5015401;28;20287;-88
2022/03/12 04:08:29;;;;;;;;;;;;;;;2.46;73.16;102664.84;5031777;28;19915;-87
2022/03/12 04:10:56;;;;;;;;;;;;;;;2.43;72.98;102663.75;4998984;28;20378;-88
2022/03/12 04:13:22;;;;;;;;;;;;;;;2.47;72.87;102682.13;4999172;28;19948;-86
2022/03/12 04:15:51;;;;;;;;;;;;;;;2.46;72.97;102677.72;4999247;28;19935;-87
2022/03/12 04:18:20;;;;;;;;;;;;;;;2.45;73.13;102669.06;5015422;28;19909;-87
2022/03/12 04:20:48;;;;;;;;;;;;;;;2.48;73.07;102659.09;4999340;28;20283;-88
2022/03/12 04:23:16;;;;;;;;;;;;;;;2.51;72.74;102679.19;4998878;28;20394;-88
2022/03/12 04:25:58;;;;;;;;;;;;;;;2.52;72.77;102666.47;5015311;28;20007;-91
2022/03/12 04:28:43;;;;;;;;;;;;;;;2.53;73.05;102669.97;4999467;28;19986;-89
2022/03/12 04:31:13;;;;;;;;;;;;;;;2.76;71.75;102668.38;5031926;28;19916;-89
2022/03/12 04:33:45;;;;;;;;;;;;;;;2.53;72.47;102667.38;5032182;28;19909;-89
2022/03/12 04:36:14;;;;;;;;;;;;;;;2.58;71.74;102677.50;4999119;28;19909;-91
2022/03/12 04:38:48;;;;;;;;;;;;;;;2.75;71.21;102666.56;5031602;28;20015;-90
2022/03/12 04:41:13;;;;;;;;;;;;;;;2.62;71.53;102671.00;5028161;28;20416;-89
2022/03/12 04:43:42;;;;;;;;;;;;;;;2.75;71.34;102668.19;5011974;28;19909;-89
2022/03/12 04:46:15;;;;;;;;;;;;;;;2.94;69.73;102666.06;5011696;28;19928;-89
2022/03/12 04:48:53;;;;;;;;;;;;;;;2.93;70.18;102664.25;5013071;28;19916;-89
2022/03/12 04:51:19;;;;;;;;;;;;;;;2.84;69.76;102666.69;5031433;28;19913;-89
2022/03/12 04:53:46;;;;;;;;;;;;;;;2.96;69.23;102672.34;4998632;28;19909;-89
2022/03/12 04:56:17;;;;;;;;;;;;;;;2.93;69.78;102670.34;5015069;28;19948;-89
2022/03/12 04:58:44;;;;;;;;;;;;;;;2.98;69.24;102681.19;4998297;28;19917;-88
2022/03/12 05:01:10;;;;;;;;;;;;;;;2.75;70.13;102684.63;4998406;28;20375;-88
2022/03/12 05:03:35;;;;;;;;;;;;;;;2.86;69.46;102683.28;5014633;28;19967;-89
2022/03/12 05:06:03;;;;;;;;;;;;;;;2.82;69.39;102682.00;5014758;28;19916;-88
2022/03/12 05:08:33;;;;;;;;;;;;;;;2.67;70.24;102681.88;5014521;28;20366;-88
2022/03/12 05:11:07;;;;;;;;;;;;;;;2.48;71.03;102696.84;4998164;28;19912;-89
2022/03/12 05:13:34;;;;;;;;;;;;;;;2.35;71.75;102697.06;5032324;28;19909;-88
2022/03/12 05:16:06;;;;;;;;;;;;;;;2.59;70.87;102707.69;4997505;28;19966;-87
2022/03/12 05:18:36;;;;;;;;;;;;;;;2.48;71.52;102704.59;5015286;28;20305;-88
2022/03/12 05:21:05;;;;;;;;;;;;;;;2.29;72.54;102715.34;5014331;28;19944;-88
2022/03/12 05:23:30;;;;;;;;;;;;;;;2.33;71.59;102706.28;5014610;28;19916;-88
2022/03/12 05:25:56;;;;;;;;;;;;;;;2.32;71.69;102701.88;5001162;28;20453;-88
2022/03/12 05:28:23;;;;;;;;;;;;;;;2.33;72.02;102706.28;4994743;28;20020;-88
2022/03/12 05:30:59;;;;;;;;;;;;;;;2.31;72.07;102700.03;5002705;28;19913;-88
2022/03/12 05:33:24;;;;;;;;;;;;;;;2.24;72.52;102703.53;5015095;28;19917;-87
2022/03/12 05:35:54;;;;;;;;;;;;;;;2.28;72.84;102695.44;5034475;28;20026;-88
2022/03/12 05:38:34;;;;;;;;;;;;;;;2.27;72.76;102693.59;5034599;28;20074;-89
2022/03/12 05:41:12;;;;;;;;;;;;;;;2.30;72.26;102704.25;5034513;28;19913;-88
2022/03/12 05:43:46;;;;;;;;;;;;;;;2.30;72.48;102690.47;4995358;28;19913;-89
2022/03/12 05:46:14;;;;;;;;;;;;;;;2.27;72.12;102682.38;5016426;28;19920;-89
2022/03/12 05:48:40;;;;;;;;;;;;;;;2.55;70.72;102691.69;5017975;28;19908;-89
2022/03/12 05:51:09;;;;;;;;;;;;;;;2.24;71.88;102680.34;5000609;28;20431;-90
2022/03/12 05:53:39;;;;;;;;;;;;;;;2.27;71.87;102683.28;5001197;28;20301;-89
2022/03/12 05:56:12;;;;;;;;;;;;;;;2.22;71.90;102676.66;5027296;28;19924;-89
2022/03/12 05:58:57;;;;;;;;;;;;;;;2.20;72.02;102668.78;5025383;28;19994;-89
2022/03/12 06:01:26;;;;;;;;;;;;;;;2.30;71.58;102670.75;5033663;28;19968;-89
2022/03/12 06:04:11;;;;;;;;;;;;;;;2.36;71.24;102670.56;5044955;28;19927;-89
2022/03/12 06:06:53;;;;;;;;;;;;;;;2.28;71.76;102674.81;5034028;28;19955;-88
2022/03/12 06:09:31;;;;;;;;;;;;;;;2.27;71.89;102678.16;5031080;28;19913;-89
2022/03/12 06:11:58;;;;;;;;;;;;;;;2.27;71.76;102698.75;5039784;28;19919;-89
2022/03/12 06:14:50;;;;;;;;;;;;;;;2.28;71.32;102694.53;5008827;28;19913;-89
2022/03/12 06:17:27;;;;;;;;;;;;;;;2.31;71.43;102700.03;5031760;28;19948;-89
2022/03/12 06:19:55;;;;;;;;;;;;;;;2.27;71.59;102687.53;5034484;28;19909;-89
2022/03/12 06:22:22;;;;;;;;;;;;;;;2.24;71.62;102695.81;5001597;28;19915;-89
2022/03/12 06:25:22;;;;;;;;;;;;;;;2.23;71.68;102704.28;5007339;28;19912;-89
2022/03/12 06:28:23;;;;;;;;;;;;;;;2.24;71.64;102690.66;5035699;28;20013;-89
2022/03/12 06:30:52;;;;;;;;;;;;;;;2.21;72.24;102708.34;5035598;28;19909;-87
2022/03/12 06:33:19;;;;;;;;;;;;;;;2.17;71.93;102719.03;5001878;28;20447;-88
2022/03/12 06:35:51;;;;;;;;;;;;;;;2.30;71.38;102717.16;5017755;28;19912;-88
2022/03/12 06:38:21;;;;;;;;;;;;;;;2.19;71.97;102723.63;5026637;28;19909;-91
2022/03/12 06:40:46;;;;;;;;;;;;;;;2.19;72.04;102720.13;5040703;28;19913;-85
2022/03/12 06:43:19;;;;;;;;;;;;;;;2.22;71.67;102717.91;5024538;28;20337;-88
2022/03/12 06:45:45;;;;;;;;;;;;;;;2.17;72.02;102722.50;5052220;28;19923;-89
2022/03/12 06:48:12;;;;;;;;;;;;;;;2.21;71.89;102723.81;5046685;28;19913;-91
2022/03/12 06:50:38;;;;;;;;;;;;;;;2.22;72.01;102734.31;5032202;28;19909;-91
2022/03/12 06:53:04;;;;;;;;;;;;;;;2.17;72.19;102729.34;5052376;28;19916;-90
2022/03/12 06:55:32;;;;;;;;;;;;;;;2.12;72.67;102740.78;5005180;28;20374;-88
2022/03/12 06:57:58;;;;;;;;;;;;;;;2.26;72.02;102738.16;5039507;28;19924;-90
2022/03/12 07:00:24;;;;;;;;;;;;;;;2.19;71.54;102730.44;5000171;28;19916;-86
2022/03/12 07:03:21;;;;;;;;;;;;;;;2.15;72.43;102731.72;5016290;28;19936;-94
2022/03/12 07:05:46;;;;;;;;;;;;;;;2.01;72.36;102722.38;5033539;28;20386;-87
2022/03/12 07:08:20;;;;;;;;;;;;;;;2.14;72.31;102727.31;5000016;28;19919;-89
2022/03/12 07:10:46;;;;;;;;;;;;;;;2.10;72.14;102717.38;5001899;28;20019;-87
2022/03/12 07:13:12;;;;;;;;;;;;;;;2.26;72.21;102727.84;5005073;28;19960;-86
2022/03/12 07:15:38;;;;;;;;;;;;;;;2.20;72.12;102730.63;5041626;28;19914;-86
2022/03/12 07:18:03;;;;;;;;;;;;;;;2.20;71.90;102732.25;5024976;28;19913;-87
2022/03/12 07:20:29;;;;;;;;;;;;;;;2.15;71.61;102741.13;5032811;28;19916;-87
2022/03/12 07:22:54;;;;;;;;;;;;;;;2.26;71.38;102740.72;5046909;28;19917;-87
2022/03/12 07:25:20;;;;;;;;;;;;;;;2.18;72.06;102759.50;5032664;28;19923;-88
2022/03/12 07:27:47;;;;;;;;;;;;;;;2.17;72.27;102758.59;5015237;28;19919;-90
2022/03/12 07:30:15;;;;;;;;;;;;;;;2.20;72.61;102758.03;5015869;28;19912;-89
2022/03/12 07:32:42;;;;;;;;;;;;;;;2.13;72.58;102763.22;5000364;28;20405;-87
2022/03/12 07:35:07;;;;;;;;;;;;;;;2.23;71.83;102768.72;5015903;28;20461;-86
2022/03/12 07:37:43;;;;;;;;;;;;;;;2.36;71.47;102774.59;5014648;28;20007;-84
2022/03/12 07:40:09;;;;;;;;;;;;;;;2.24;71.56;102774.09;5051287;28;19913;-86
2022/03/12 07:42:35;;;;;;;;;;;;;;;2.18;72.01;102780.13;5030028;28;20071;-87
2022/03/12 07:45:00;;;;;;;;;;;;;;;2.12;72.50;102788.06;5002886;28;20434;-88
2022/03/12 07:47:26;;;;;;;;;;;;;;;2.08;72.24;102782.38;5015499;28;19916;-88
2022/03/12 07:49:52;;;;;;;;;;;;;;;2.16;72.65;102776.44;5031670;28;19970;-86
2022/03/12 07:52:17;;;;;;;;;;;;;;;2.15;72.66;102782.38;5012127;28;19968;-87
2022/03/12 07:54:43;;;;;;;;;;;;;;;2.18;72.02;102774.97;5028238;28;19920;-86
2022/03/12 07:57:08;;;;;;;;;;;;;;;2.31;71.77;102774.78;5012886;28;20367;-86
2022/03/12 07:59:34;;;;;;;;;;;;;;;2.20;71.36;102765.78;5030983;28;19924;-86
2022/03/12 08:02:00;;;;;;;;;;;;;;;2.14;71.81;102771.13;5032447;28;19974;-86
2022/03/12 08:04:26;;;;;;;;;;;;;;;2.29;71.25;102760.81;5014913;28;19948;-85
2022/03/12 08:06:52;;;;;;;;;;;;;;;2.29;71.90;102773.72;5032716;28;19916;-86
2022/03/12 08:09:17;;;;;;;;;;;;;;;2.18;72.33;102764.66;4996686;28;19999;-87
2022/03/12 08:11:47;;;;;;;;;;;;;;;2.29;72.13;102778.88;5010317;28;19913;-91
2022/03/12 08:14:22;;;;;;;;;;;;;;;2.12;72.30;102775.19;5032688;28;19920;-90
2022/03/12 08:22:45;;;;;;;;;;;;;;;2.09;71.80;102774.81;5013942;28;19963;-90
2022/03/12 08:25:11;;;;;;;;;;;;;;;2.12;72.18;102780.34;5032163;28;19916;-89
2022/03/12 08:27:38;;;;;;;;;;;;;;;2.23;71.82;102779.03;5030010;28;19908;-90
2022/03/12 08:30:16;;;;;;;;;;;;;;;2.35;71.04;102788.25;5037208;28;19995;-91
2022/03/12 08:32:56;;;;;;;;;;;;;;;2.40;71.50;102781.97;5036020;28;19908;-93
2022/03/12 08:35:26;;;;;;;;;;;;;;;2.31;71.83;102779.94;5046665;28;19913;-89
2022/03/12 08:37:53;;;;;;;;;;;;;;;2.24;71.74;102781.81;5041635;28;19912;-89
2022/03/12 08:40:25;;;;;;;;;;;;;;;2.16;72.16;102784.19;5005018;28;19920;-88
2022/03/12 08:42:53;;;;;;;;;;;;;;;2.19;72.89;102772.59;5048533;28;19999;-89
2022/03/12 08:45:23;;;;;;;;;;;;;;;2.28;72.11;102779.59;5051066;28;19924;-88
2022/03/12 08:47:51;;;;;;;;;;;;;;;2.33;71.82;102783.63;5046124;28;19916;-89
2022/03/12 08:50:22;;;;;;;;;;;;;;;2.32;71.76;102774.06;5034887;28;19913;-90
2022/03/12 08:52:47;;;;;;;;;;;;;;;2.12;71.91;102777.75;5052527;28;19908;-87
2022/03/12 08:55:13;;;;;;;;;;;;;;;2.26;71.64;102781.97;5050832;28;20432;-86
2022/03/12 08:57:39;;;;;;;;;;;;;;;2.28;71.69;102772.75;5047163;28;20322;-86
2022/03/12 09:00:12;;;;;;;;;;;;;;;2.17;71.69;102781.81;5018404;28;20011;-91
2022/03/12 09:02:40;;;;;;;;;;;;;;;2.52;71.23;102787.69;4995249;28;19952;-90
2022/03/12 09:05:08;;;;;;;;;;;;;;;2.31;71.09;102783.47;5023118;28;19917;-94
2022/03/12 09:07:34;;;;;;;;;;;;;;;2.28;71.60;102787.31;4994547;28;19917;-93
2022/03/12 09:13:06;;;;;;;;;;;;;;;2.46;70.54;102791.19;5017163;28;20056;-90
2022/03/12 09:15:52;;;;;;;;;;;;;;;2.36;71.34;102784.91;5014263;28;20390;-90
2022/03/12 09:18:24;;;;;;;;;;;;;;;2.15;72.14;102787.50;5015606;28;19960;-88
2022/03/12 09:20:52;;;;;;;;;;;;;;;2.16;72.41;102781.59;5002145;28;19913;-88
2022/03/12 09:23:21;;;;;;;;;;;;;;;2.09;71.82;102785.09;4997038;28;19916;-89
2022/03/12 09:25:47;;;;;;;;;;;;;;;2.28;71.55;102792.47;5006396;28;19974;-88
2022/03/12 09:28:14;;;;;;;;;;;;;;;2.13;71.23;102786.41;5015444;28;20467;-90
2022/03/12 09:30:40;;;;;;;;;;;;;;;2.17;71.49;102804.09;5018001;28;20375;-88
2022/03/12 09:33:07;;;;;;;;;;;;;;;2.16;71.28;102791.91;5050762;28;19924;-89
2022/03/12 09:35:39;;;;;;;;;;;;;;;2.13;72.13;102799.28;5018253;28;20000;-90
2022/03/12 09:38:18;;;;;;;;;;;;;;;2.07;72.05;102791.72;5024632;28;20024;-92
2022/03/12 09:40:47;;;;;;;;;;;;;;;2.15;71.75;102792.66;5032007;28;19909;-89
2022/03/12 09:43:21;;;;;;;;;;;;;;;2.01;71.84;102793.56;5044086;28;19952;-91
2022/03/12 09:45:57;;;;;;;;;;;;;;;2.11;72.60;102788.78;5036686;28;19917;-90
2022/03/12 09:48:23;;;;;;;;;;;;;;;2.10;71.90;102789.53;5013988;28;20012;-88
2022/03/12 09:50:50;;;;;;;;;;;;;;;2.18;71.84;102791.38;5014029;28;19917;-87
2022/03/12 09:53:16;;;;;;;;;;;;;;;2.14;72.49;102802.06;5013626;28;19913;-88
2022/03/12 09:55:42;;;;;;;;;;;;;;;2.26;71.56;102789.72;5013457;28;20283;-87
2022/03/12 09:58:07;;;;;;;;;;;;;;;2.06;72.12;102797.66;5012636;28;19928;-87
2022/03/12 10:00:33;;;;;;;;;;;;;;;2.01;71.82;102776.47;5014645;28;20008;-87
2022/03/12 10:02:59;;;;;;;;;;;;;;;2.22;72.04;102783.28;5015019;28;19909;-88
2022/03/12 10:05:24;;;;;;;;;;;;;;;2.23;71.07;102784.19;5015185;28;19952;-87
2022/03/12 10:07:51;;;;;;;;;;;;;;;2.21;71.51;102788.25;5012833;28;19914;-87
2022/03/12 10:10:24;;;;;;;;;;;;;;;2.18;72.04;102782.72;5015431;28;20448;-88
2022/03/12 10:12:50;;;;;;;;;;;;;;;1.98;71.89;102781.25;5013639;28;19909;-87
2022/03/12 10:15:16;;;;;;;;;;;;;;;2.10;71.45;102778.31;5023543;28;20016;-90
2022/03/12 10:17:42;;;;;;;;;;;;;;;1.95;72.41;102787.72;5016217;28;19909;-88
2022/03/12 10:20:10;;;;;;;;;;;;;;;1.90;73.00;102774.25;5010647;28;20004;-89
2022/03/12 10:22:37;;;;;;;;;;;;;;;2.06;72.22;102787.34;5010772;28;20413;-85
2022/03/12 10:25:05;;;;;;;;;;;;;;;1.95;72.78;102773.16;5010682;28;20154;-88
2022/03/12 10:27:30;;;;;;;;;;;;;;;2.06;72.51;102773.53;5010439;28;19909;-88
2022/03/12 10:29:56;;;;;;;;;;;;;;;2.01;72.26;102776.47;5010307;28;19916;-89
2022/03/12 10:32:25;;;;;;;;;;;;;;;2.10;71.88;102768.03;5030290;28;19938;-89
2022/03/12 10:34:52;;;;;;;;;;;;;;;2.07;72.41;102765.06;5017259;28;20462;-90
2022/03/12 10:37:22;;;;;;;;;;;;;;;2.17;71.80;102774.06;5017558;28;20424;-90
2022/03/12 10:39:49;;;;;;;;;;;;;;;2.11;71.58;102765.59;5034091;28;19909;-89
2022/03/12 10:42:16;;;;;;;;;;;;;;;2.01;72.23;102765.22;5017111;28;19913;-90
2022/03/12 10:44:42;;;;;;;;;;;;;;;1.99;72.35;102770.22;5033289;28;19984;-89
2022/03/12 10:47:24;;;;;;;;;;;;;;;2.13;71.43;102758.97;5016918;28;19955;-89
2022/03/12 10:49:59;;;;;;;;;;;;;;;2.30;70.88;102757.50;5033199;28;19948;-89
2022/03/12 10:52:27;;;;;;;;;;;;;;;2.04;71.97;102758.78;5032581;28;19913;-89
2022/03/12 10:54:58;;;;;;;;;;;;;;;2.04;72.00;102755.31;5029945;28;19916;-89
2022/03/12 10:57:23;;;;;;;;;;;;;;;1.96;72.64;102763.75;5014894;28;19913;-85
2022/03/12 10:59:54;;;;;;;;;;;;;;;1.99;72.57;102754.75;4999310;28;19912;-87
2022/03/12 11:02:21;;;;;;;;;;;;;;;1.99;72.40;102756.38;5016238;28;19909;-88
2022/03/12 11:04:48;;;;;;;;;;;;;;;2.09;72.01;102753.28;4999654;28;19920;-89
2022/03/12 11:07:29;;;;;;;;;;;;;;;2.13;72.19;102751.25;4999777;28;20390;-88
2022/03/12 11:09:55;;;;;;;;;;;;;;;2.03;72.40;102748.28;5034552;28;19940;-88
2022/03/12 11:12:31;;;;;;;;;;;;;;;2.08;71.76;102739.47;5036271;28;19912;-89
2022/03/12 11:15:04;;;;;;;;;;;;;;;2.11;71.41;102741.50;4999522;28;19923;-88
2022/03/12 11:17:30;;;;;;;;;;;;;;;2.16;71.31;102737.78;5033903;28;19986;-89
2022/03/12 11:19:57;;;;;;;;;;;;;;;2.43;70.27;102737.56;5029241;28;20386;-87
2022/03/12 11:22:22;;;;;;;;;;;;;;;2.20;70.88;102735.78;5022535;28;20379;-88
2022/03/12 11:25:21;;;;;;;;;;;;;;;2.02;71.38;102726.75;5033030;28;20098;-91
2022/03/12 11:27:49;;;;;;;;;;;;;;;1.99;71.63;102723.84;5031167;28;19913;-89
2022/03/12 11:30:26;;;;;;;;;;;;;;;1.96;72.45;102719.97;5031281;28;19944;-90
2022/03/12 11:33:05;;;;;;;;;;;;;;;1.93;72.73;102711.88;5016328;28;19920;-91
2022/03/12 11:35:39;;;;;;;;;;;;;;;2.06;72.08;102722.00;5026912;28;19936;-91
2022/03/12 11:38:24;;;;;;;;;;;;;;;1.94;71.98;102722.34;4999591;28;19917;-91
2022/03/12 11:41:11;;;;;;;;;;;;;;;1.90;72.70;102714.06;5034306;28;19916;-90
2022/03/12 11:43:38;;;;;;;;;;;;;;;1.98;72.00;102713.34;5031379;28;19948;-87
2022/03/12 11:46:04;;;;;;;;;;;;;;;2.11;71.75;102716.63;5011793;28;19929;-87
2022/03/12 11:48:31;;;;;;;;;;;;;;;1.95;72.18;102719.06;5030360;28;19913;-87
2022/03/12 11:50:57;;;;;;;;;;;;;;;1.96;72.19;102705.41;5015599;28;19975;-84
2022/03/12 11:53:22;;;;;;;;;;;;;;;1.98;71.05;102709.09;5031087;28;20417;-85
2022/03/12 11:55:50;;;;;;;;;;;;;;;2.04;71.19;102707.25;5031520;28;19955;-84
2022/03/12 11:58:18;;;;;;;;;;;;;;;2.03;71.86;102714.78;5011383;28;20448;-88
2022/03/12 12:00:45;;;;;;;;;;;;;;;1.85;72.48;102716.09;5011971;28;19920;-88
2022/03/12 12:03:12;;;;;;;;;;;;;;;1.88;72.42;102694.94;5008700;28;19925;-87
2022/03/12 12:05:41;;;;;;;;;;;;;;;1.91;72.47;102693.66;5008730;28;20311;-87
2022/03/12 12:08:08;;;;;;;;;;;;;;;1.96;71.72;102700.25;5024190;28;19917;-88
2022/03/12 12:10:41;;;;;;;;;;;;;;;1.91;72.00;102687.59;5011080;28;19913;-87
2022/03/12 12:13:18;;;;;;;;;;;;;;;1.85;72.25;102698.06;5027358;28;19910;-88
2022/03/12 12:15:46;;;;;;;;;;;;;;;2.11;71.41;102698.59;5027405;28;19921;-87
2022/03/12 12:18:13;;;;;;;;;;;;;;;1.89;72.21;102699.38;5007613;28;19918;-86
2022/03/12 12:20:42;;;;;;;;;;;;;;;1.91;72.23;102701.38;5028054;28;19916;-86
2022/03/12 12:23:13;;;;;;;;;;;;;;;1.94;71.49;102708.56;5023938;28;20296;-86
2022/03/12 12:25:38;;;;;;;;;;;;;;;2.00;71.72;102711.88;5008222;28;19984;-84
2022/03/12 12:28:17;;;;;;;;;;;;;;;2.08;71.83;102712.78;5025887;28;20380;-86
2022/03/12 12:30:45;;;;;;;;;;;;;;;2.18;71.60;102713.13;5011180;28;19913;-86
2022/03/12 12:33:17;;;;;;;;;;;;;;;2.16;70.76;102715.53;4988907;28;20008;-85
2022/03/12 12:35:46;;;;;;;;;;;;;;;2.21;70.89;102714.41;4993446;28;20405;-87
2022/03/12 12:38:13;;;;;;;;;;;;;;;2.08;71.03;102729.16;5011061;28;20294;-87
2022/03/12 12:40:41;;;;;;;;;;;;;;;2.06;71.02;102725.50;5010884;28;19913;-88
2022/03/12 12:43:13;;;;;;;;;;;;;;;2.02;71.64;102724.19;5025871;28;20005;-87
2022/03/12 12:45:48;;;;;;;;;;;;;;;2.03;71.67;102718.31;5026832;28;19925;-88
2022/03/12 12:48:15;;;;;;;;;;;;;;;2.04;71.16;102726.97;5011956;28;19913;-88
2022/03/12 12:51:00;;;;;;;;;;;;;;;2.03;71.73;102726.03;5010698;28;19913;-88
2022/03/12 12:53:28;;;;;;;;;;;;;;;2.07;71.69;102726.41;5006655;28;20330;-87
2022/03/12 12:55:59;;;;;;;;;;;;;;;1.95;71.92;102723.28;5026879;28;20448;-88
2022/03/12 12:58:44;;;;;;;;;;;;;;;1.86;72.05;102723.09;5010529;28;19924;-86
2022/03/12 13:01:12;;;;;;;;;;;;;;;1.99;71.31;102710.94;5010335;28;19917;-89
2022/03/12 13:03:44;;;;;;;;;;;;;;;2.07;71.01;102713.50;4994587;28;20381;-86
2022/03/12 13:06:11;;;;;;;;;;;;;;;2.24;70.42;102709.63;4996744;28;19967;-86
2022/03/12 13:08:43;;;;;;;;;;;;;;;2.13;70.88;102714.25;5030725;28;19916;-86
2022/03/12 13:11:28;;;;;;;;;;;;;;;2.07;71.60;102706.69;5021089;28;19909;-87